sensor_id;sensor_type;location;lat;lon;timestamp;P1;durP1;ratioP1;P2;durP2;ratioP2
40533;SDS011;26233;51.894;10.192;2023-03-01T00:01:10;4.50;;;4.10;;
40533;SDS011;26233;51.894;10.192;2023-03-01T00:03:40;4.07;;;3.70;;
40533;SDS011;26233;51.894;10.192;2023-03-01T00:06:08;4.43;;;4.03;;
40533;SDS011;26233;51.894;10.192;2023-03-01T00:08:35;4.43;;;3.90;;
40533;SDS011;26233;51.894;10.192;2023-03-01T00:11:05;4.77;;;4.37;;
40533;SDS011;26233;51.894;10.192;2023-03-01T00:13:34;4.57;;;4.17;;
40533;SDS011;26233;51.894;10.192;2023-03-01T00:16:02;4.43;;;4.03;;
40533;SDS011;26233;51.894;10.192;2023-03-01T00:18:30;4.53;;;4.13;;
40533;SDS011;26233;51.894;10.192;2023-03-01T00:20:57;4.17;;;3.77;;
40533;SDS011;26233;51.894;10.192;2023-03-01T00:23:24;3.80;;;3.50;;
40533;SDS011;26233;51.894;10.192;2023-03-01T00:25:52;4.13;;;3.73;;
40533;SDS011;26233;51.894;10.192;2023-03-01T00:28:21;3.50;;;3.20;;
40533;SDS011;26233;51.894;10.192;2023-03-01T00:30:48;3.87;;;3.47;;
40533;SDS011;26233;51.894;10.192;2023-03-01T00:33:16;4.20;;;3.80;;
40533;SDS011;26233;51.894;10.192;2023-03-01T00:35:43;4.17;;;3.60;;
40533;SDS011;26233;51.894;10.192;2023-03-01T00:38:10;3.63;;;3.33;;
40533;SDS011;26233;51.894;10.192;2023-03-01T00:40:38;3.87;;;3.47;;
40533;SDS011;26233;51.894;10.192;2023-03-01T00:43:05;4.37;;;3.90;;
40533;SDS011;26233;51.894;10.192;2023-03-01T00:45:33;4.30;;;3.63;;
40533;SDS011;26233;51.894;10.192;2023-03-01T00:48:00;3.93;;;3.53;;
40533;SDS011;26233;51.894;10.192;2023-03-01T00:50:28;4.33;;;3.93;;
40533;SDS011;26233;51.894;10.192;2023-03-01T00:52:55;4.20;;;3.80;;
40533;SDS011;26233;51.894;10.192;2023-03-01T00:55:22;4.30;;;3.90;;
40533;SDS011;26233;51.894;10.192;2023-03-01T00:57:50;4.20;;;3.80;;
40533;SDS011;26233;51.894;10.192;2023-03-01T01:00:18;4.17;;;3.77;;
40533;SDS011;26233;51.894;10.192;2023-03-01T01:02:47;4.33;;;3.87;;
40533;SDS011;26233;51.894;10.192;2023-03-01T01:05:14;3.93;;;3.53;;
40533;SDS011;26233;51.894;10.192;2023-03-01T01:07:45;4.47;;;3.90;;
40533;SDS011;26233;51.894;10.192;2023-03-01T01:10:13;4.20;;;3.80;;
40533;SDS011;26233;51.894;10.192;2023-03-01T01:12:42;4.50;;;3.50;;
40533;SDS011;26233;51.894;10.192;2023-03-01T01:15:10;3.83;;;3.53;;
40533;SDS011;26233;51.894;10.192;2023-03-01T01:17:39;3.67;;;3.37;;
40533;SDS011;26233;51.894;10.192;2023-03-01T01:20:08;3.87;;;3.50;;
40533;SDS011;26233;51.894;10.192;2023-03-01T01:22:37;3.70;;;3.40;;
40533;SDS011;26233;51.894;10.192;2023-03-01T01:25:04;4.10;;;3.50;;
40533;SDS011;26233;51.894;10.192;2023-03-01T01:27:32;3.93;;;3.43;;
40533;SDS011;26233;51.894;10.192;2023-03-01T01:29:59;4.13;;;3.73;;
40533;SDS011;26233;51.894;10.192;2023-03-01T01:32:26;4.10;;;3.70;;
40533;SDS011;26233;51.894;10.192;2023-03-01T01:34:53;3.50;;;3.20;;
40533;SDS011;26233;51.894;10.192;2023-03-01T01:37:21;3.50;;;3.20;;
40533;SDS011;26233;51.894;10.192;2023-03-01T01:39:56;3.60;;;3.30;;
40533;SDS011;26233;51.894;10.192;2023-03-01T01:42:24;3.47;;;3.17;;
40533;SDS011;26233;51.894;10.192;2023-03-01T01:47:55;3.97;;;3.60;;
40533;SDS011;26233;51.894;10.192;2023-03-01T01:50:27;3.63;;;3.33;;
40533;SDS011;26233;51.894;10.192;2023-03-01T01:53:04;3.63;;;3.33;;
40533;SDS011;26233;51.894;10.192;2023-03-01T01:55:34;4.27;;;3.87;;
40533;SDS011;26233;51.894;10.192;2023-03-01T01:58:04;5.40;;;4.83;;
40533;SDS011;26233;51.894;10.192;2023-03-01T02:00:33;5.20;;;4.20;;
40533;SDS011;26233;51.894;10.192;2023-03-01T02:03:02;5.07;;;4.57;;
40533;SDS011;26233;51.894;10.192;2023-03-01T02:05:35;6.23;;;4.47;;
40533;SDS011;26233;51.894;10.192;2023-03-01T02:08:11;4.80;;;4.40;;
40533;SDS011;26233;51.894;10.192;2023-03-01T02:10:40;4.77;;;4.27;;
40533;SDS011;26233;51.894;10.192;2023-03-01T02:13:08;4.30;;;3.90;;
40533;SDS011;26233;51.894;10.192;2023-03-01T02:15:37;4.43;;;4.03;;
40533;SDS011;26233;51.894;10.192;2023-03-01T02:18:06;4.50;;;3.60;;
40533;SDS011;26233;51.894;10.192;2023-03-01T02:20:35;4.27;;;3.50;;
40533;SDS011;26233;51.894;10.192;2023-03-01T02:23:12;3.87;;;3.57;;
40533;SDS011;26233;51.894;10.192;2023-03-01T02:25:43;3.60;;;3.23;;
40533;SDS011;26233;51.894;10.192;2023-03-01T02:28:24;3.50;;;3.20;;
40533;SDS011;26233;51.894;10.192;2023-03-01T02:30:57;3.30;;;3.00;;
40533;SDS011;26233;51.894;10.192;2023-03-01T02:33:42;3.27;;;3.03;;
40533;SDS011;26233;51.894;10.192;2023-03-01T02:36:12;3.37;;;3.07;;
40533;SDS011;26233;51.894;10.192;2023-03-01T02:38:43;3.50;;;2.83;;
40533;SDS011;26233;51.894;10.192;2023-03-01T02:41:11;3.27;;;2.97;;
40533;SDS011;26233;51.894;10.192;2023-03-01T02:43:44;3.30;;;3.00;;
40533;SDS011;26233;51.894;10.192;2023-03-01T02:46:13;4.23;;;3.50;;
40533;SDS011;26233;51.894;10.192;2023-03-01T02:48:43;3.40;;;3.10;;
40533;SDS011;26233;51.894;10.192;2023-03-01T02:51:17;4.30;;;3.50;;
40533;SDS011;26233;51.894;10.192;2023-03-01T02:54:01;3.60;;;3.30;;
40533;SDS011;26233;51.894;10.192;2023-03-01T02:56:38;3.47;;;3.17;;
40533;SDS011;26233;51.894;10.192;2023-03-01T02:59:08;4.20;;;3.43;;
40533;SDS011;26233;51.894;10.192;2023-03-01T03:01:36;3.30;;;2.90;;
40533;SDS011;26233;51.894;10.192;2023-03-01T03:04:04;4.00;;;3.60;;
40533;SDS011;26233;51.894;10.192;2023-03-01T03:06:33;3.00;;;2.70;;
40533;SDS011;26233;51.894;10.192;2023-03-01T03:09:00;3.57;;;3.27;;
40533;SDS011;26233;51.894;10.192;2023-03-01T03:11:29;3.33;;;3.03;;
40533;SDS011;26233;51.894;10.192;2023-03-01T03:13:57;3.53;;;3.23;;
40533;SDS011;26233;51.894;10.192;2023-03-01T03:16:25;3.07;;;2.83;;
40533;SDS011;26233;51.894;10.192;2023-03-01T03:18:54;3.20;;;2.87;;
40533;SDS011;26233;51.894;10.192;2023-03-01T03:21:29;3.53;;;3.10;;
40533;SDS011;26233;51.894;10.192;2023-03-01T03:23:57;3.70;;;3.13;;
40533;SDS011;26233;51.894;10.192;2023-03-01T03:26:24;3.50;;;3.20;;
40533;SDS011;26233;51.894;10.192;2023-03-01T03:28:51;3.57;;;3.00;;
40533;SDS011;26233;51.894;10.192;2023-03-01T03:31:18;5.30;;;3.50;;
40533;SDS011;26233;51.894;10.192;2023-03-01T03:33:47;3.50;;;2.93;;
40533;SDS011;26233;51.894;10.192;2023-03-01T03:36:15;3.27;;;2.97;;
40533;SDS011;26233;51.894;10.192;2023-03-01T03:38:42;3.83;;;3.10;;
40533;SDS011;26233;51.894;10.192;2023-03-01T03:41:10;4.80;;;3.47;;
40533;SDS011;26233;51.894;10.192;2023-03-01T03:43:39;4.23;;;3.83;;
40533;SDS011;26233;51.894;10.192;2023-03-01T03:46:08;4.40;;;4.00;;
40533;SDS011;26233;51.894;10.192;2023-03-01T03:48:37;3.80;;;3.33;;
40533;SDS011;26233;51.894;10.192;2023-03-01T03:51:09;4.47;;;3.60;;
40533;SDS011;26233;51.894;10.192;2023-03-01T03:53:37;3.83;;;3.33;;
40533;SDS011;26233;51.894;10.192;2023-03-01T03:56:05;3.43;;;3.13;;
40533;SDS011;26233;51.894;10.192;2023-03-01T03:58:32;4.37;;;3.57;;
40533;SDS011;26233;51.894;10.192;2023-03-01T04:01:00;4.60;;;3.70;;
40533;SDS011;26233;51.894;10.192;2023-03-01T04:03:28;3.87;;;3.47;;
40533;SDS011;26233;51.894;10.192;2023-03-01T04:05:57;4.50;;;3.70;;
40533;SDS011;26233;51.894;10.192;2023-03-01T04:08:27;4.53;;;3.40;;
40533;SDS011;26233;51.894;10.192;2023-03-01T04:10:57;3.70;;;3.13;;
40533;SDS011;26233;51.894;10.192;2023-03-01T04:13:46;3.63;;;3.33;;
40533;SDS011;26233;51.894;10.192;2023-03-01T04:16:14;3.53;;;3.23;;
40533;SDS011;26233;51.894;10.192;2023-03-01T04:18:41;3.97;;;3.50;;
40533;SDS011;26233;51.894;10.192;2023-03-01T04:21:08;3.77;;;3.47;;
40533;SDS011;26233;51.894;10.192;2023-03-01T04:23:37;3.87;;;3.47;;
40533;SDS011;26233;51.894;10.192;2023-03-01T04:26:05;4.07;;;3.70;;
40533;SDS011;26233;51.894;10.192;2023-03-01T04:28:34;4.37;;;3.70;;
40533;SDS011;26233;51.894;10.192;2023-03-01T04:31:05;3.70;;;3.37;;
40533;SDS011;26233;51.894;10.192;2023-03-01T04:33:38;4.10;;;3.70;;
40533;SDS011;26233;51.894;10.192;2023-03-01T04:36:07;4.30;;;3.33;;
40533;SDS011;26233;51.894;10.192;2023-03-01T04:38:36;4.23;;;3.83;;
40533;SDS011;26233;51.894;10.192;2023-03-01T04:41:05;4.07;;;3.60;;
40533;SDS011;26233;51.894;10.192;2023-03-01T04:43:34;4.00;;;3.60;;
40533;SDS011;26233;51.894;10.192;2023-03-01T04:46:02;4.77;;;3.50;;
40533;SDS011;26233;51.894;10.192;2023-03-01T04:48:33;3.87;;;3.57;;
40533;SDS011;26233;51.894;10.192;2023-03-01T04:51:00;3.93;;;3.53;;
40533;SDS011;26233;51.894;10.192;2023-03-01T04:53:28;3.70;;;3.40;;
40533;SDS011;26233;51.894;10.192;2023-03-01T04:55:57;4.47;;;4.03;;
40533;SDS011;26233;51.894;10.192;2023-03-01T04:58:25;4.07;;;3.60;;
40533;SDS011;26233;51.894;10.192;2023-03-01T05:00:53;4.40;;;3.70;;
40533;SDS011;26233;51.894;10.192;2023-03-01T05:03:21;4.50;;;3.87;;
40533;SDS011;26233;51.894;10.192;2023-03-01T05:05:49;4.47;;;4.07;;
40533;SDS011;26233;51.894;10.192;2023-03-01T05:08:18;4.43;;;4.03;;
40533;SDS011;26233;51.894;10.192;2023-03-01T05:10:46;4.00;;;3.63;;
40533;SDS011;26233;51.894;10.192;2023-03-01T05:13:17;4.80;;;4.40;;
40533;SDS011;26233;51.894;10.192;2023-03-01T05:15:47;4.60;;;4.10;;
40533;SDS011;26233;51.894;10.192;2023-03-01T05:18:14;4.77;;;4.37;;
40533;SDS011;26233;51.894;10.192;2023-03-01T05:20:41;5.20;;;4.70;;
40533;SDS011;26233;51.894;10.192;2023-03-01T05:23:09;4.93;;;4.43;;
40533;SDS011;26233;51.894;10.192;2023-03-01T05:25:37;5.17;;;4.67;;
40533;SDS011;26233;51.894;10.192;2023-03-01T05:28:05;4.93;;;4.07;;
40533;SDS011;26233;51.894;10.192;2023-03-01T05:30:36;5.70;;;5.03;;
40533;SDS011;26233;51.894;10.192;2023-03-01T05:33:04;6.07;;;4.90;;
40533;SDS011;26233;51.894;10.192;2023-03-01T05:35:38;6.47;;;4.83;;
40533;SDS011;26233;51.894;10.192;2023-03-01T05:38:07;5.10;;;4.60;;
40533;SDS011;26233;51.894;10.192;2023-03-01T05:40:38;5.40;;;4.90;;
40533;SDS011;26233;51.894;10.192;2023-03-01T05:43:05;5.17;;;4.67;;
40533;SDS011;26233;51.894;10.192;2023-03-01T05:45:33;7.47;;;6.60;;
40533;SDS011;26233;51.894;10.192;2023-03-01T05:48:04;9.13;;;7.60;;
40533;SDS011;26233;51.894;10.192;2023-03-01T05:50:34;6.70;;;5.87;;
40533;SDS011;26233;51.894;10.192;2023-03-01T05:53:04;6.17;;;5.10;;
40533;SDS011;26233;51.894;10.192;2023-03-01T05:55:33;5.77;;;4.87;;
40533;SDS011;26233;51.894;10.192;2023-03-01T05:58:02;6.47;;;5.30;;
40533;SDS011;26233;51.894;10.192;2023-03-01T06:00:31;5.00;;;4.50;;
40533;SDS011;26233;51.894;10.192;2023-03-01T06:03:00;5.93;;;4.70;;
40533;SDS011;26233;51.894;10.192;2023-03-01T06:05:28;6.47;;;5.17;;
40533;SDS011;26233;51.894;10.192;2023-03-01T06:07:58;6.03;;;5.43;;
40533;SDS011;26233;51.894;10.192;2023-03-01T06:10:26;5.37;;;4.87;;
40533;SDS011;26233;51.894;10.192;2023-03-01T06:12:53;4.63;;;4.23;;
40533;SDS011;26233;51.894;10.192;2023-03-01T06:15:21;5.33;;;4.83;;
40533;SDS011;26233;51.894;10.192;2023-03-01T06:17:49;5.27;;;4.77;;
40533;SDS011;26233;51.894;10.192;2023-03-01T06:20:19;5.47;;;4.30;;
40533;SDS011;26233;51.894;10.192;2023-03-01T06:22:49;4.83;;;4.17;;
40533;SDS011;26233;51.894;10.192;2023-03-01T06:25:16;5.07;;;4.57;;
40533;SDS011;26233;51.894;10.192;2023-03-01T06:27:48;5.77;;;4.67;;
40533;SDS011;26233;51.894;10.192;2023-03-01T06:30:17;6.73;;;4.97;;
40533;SDS011;26233;51.894;10.192;2023-03-01T06:32:46;5.00;;;4.50;;
40533;SDS011;26233;51.894;10.192;2023-03-01T06:35:14;5.77;;;5.27;;
40533;SDS011;26233;51.894;10.192;2023-03-01T06:37:44;6.00;;;5.50;;
40533;SDS011;26233;51.894;10.192;2023-03-01T06:40:13;5.20;;;4.40;;
40533;SDS011;26233;51.894;10.192;2023-03-01T06:42:42;5.97;;;4.57;;
40533;SDS011;26233;51.894;10.192;2023-03-01T06:45:14;7.83;;;7.03;;
40533;SDS011;26233;51.894;10.192;2023-03-01T06:47:41;5.90;;;5.30;;
40533;SDS011;26233;51.894;10.192;2023-03-01T06:50:08;4.80;;;4.40;;
40533;SDS011;26233;51.894;10.192;2023-03-01T06:52:36;5.70;;;5.10;;
40533;SDS011;26233;51.894;10.192;2023-03-01T06:55:05;5.00;;;4.50;;
40533;SDS011;26233;51.894;10.192;2023-03-01T06:57:33;5.90;;;5.27;;
40533;SDS011;26233;51.894;10.192;2023-03-01T07:00:01;5.70;;;5.10;;
40533;SDS011;26233;51.894;10.192;2023-03-01T07:02:28;5.13;;;4.63;;
40533;SDS011;26233;51.894;10.192;2023-03-01T07:04:55;4.77;;;4.37;;
40533;SDS011;26233;51.894;10.192;2023-03-01T07:07:22;5.33;;;4.83;;
40533;SDS011;26233;51.894;10.192;2023-03-01T07:09:49;5.07;;;4.57;;
40533;SDS011;26233;51.894;10.192;2023-03-01T07:12:19;6.53;;;4.70;;
40533;SDS011;26233;51.894;10.192;2023-03-01T07:14:46;5.30;;;4.70;;
40533;SDS011;26233;51.894;10.192;2023-03-01T07:17:13;5.30;;;4.80;;
40533;SDS011;26233;51.894;10.192;2023-03-01T07:19:43;9.37;;;8.37;;
40533;SDS011;26233;51.894;10.192;2023-03-01T07:22:10;14.90;;;12.93;;
40533;SDS011;26233;51.894;10.192;2023-03-01T07:24:37;15.07;;;12.83;;
40533;SDS011;26233;51.894;10.192;2023-03-01T07:27:04;10.83;;;9.67;;
40533;SDS011;26233;51.894;10.192;2023-03-01T07:29:33;9.83;;;8.83;;
40533;SDS011;26233;51.894;10.192;2023-03-01T07:32:01;8.30;;;7.50;;
40533;SDS011;26233;51.894;10.192;2023-03-01T07:34:28;9.70;;;7.70;;
40533;SDS011;26233;51.894;10.192;2023-03-01T07:36:56;6.67;;;6.03;;
40533;SDS011;26233;51.894;10.192;2023-03-01T07:39:23;7.33;;;6.63;;
40533;SDS011;26233;51.894;10.192;2023-03-01T07:41:50;7.33;;;6.63;;
40533;SDS011;26233;51.894;10.192;2023-03-01T07:44:17;6.70;;;6.07;;
40533;SDS011;26233;51.894;10.192;2023-03-01T07:46:46;7.40;;;6.63;;
40533;SDS011;26233;51.894;10.192;2023-03-01T07:49:13;8.10;;;7.30;;
40533;SDS011;26233;51.894;10.192;2023-03-01T07:51:40;7.30;;;6.60;;
40533;SDS011;26233;51.894;10.192;2023-03-01T07:54:07;6.97;;;6.30;;
40533;SDS011;26233;51.894;10.192;2023-03-01T07:56:34;6.60;;;5.90;;
40533;SDS011;26233;51.894;10.192;2023-03-01T07:59:01;6.60;;;5.93;;
40533;SDS011;26233;51.894;10.192;2023-03-01T08:01:28;6.63;;;6.03;;
40533;SDS011;26233;51.894;10.192;2023-03-01T08:03:57;6.10;;;5.60;;
40533;SDS011;26233;51.894;10.192;2023-03-01T08:06:24;6.30;;;5.70;;
40533;SDS011;26233;51.894;10.192;2023-03-01T08:08:51;6.43;;;5.90;;
40533;SDS011;26233;51.894;10.192;2023-03-01T08:11:20;6.03;;;5.53;;
40533;SDS011;26233;51.894;10.192;2023-03-01T08:13:48;6.63;;;6.05;;
40533;SDS011;26233;51.894;10.192;2023-03-01T08:16:18;6.88;;;6.28;;
40533;SDS011;26233;51.894;10.192;2023-03-01T08:18:45;6.00;;;5.50;;
40533;SDS011;26233;51.894;10.192;2023-03-01T08:21:14;6.78;;;6.18;;
40533;SDS011;26233;51.894;10.192;2023-03-01T08:23:43;6.35;;;5.75;;
40533;SDS011;26233;51.894;10.192;2023-03-01T08:26:11;6.32;;;5.82;;
40533;SDS011;26233;51.894;10.192;2023-03-01T08:28:40;6.20;;;5.65;;
40533;SDS011;26233;51.894;10.192;2023-03-01T08:31:15;6.07;;;5.47;;
40533;SDS011;26233;51.894;10.192;2023-03-01T08:33:44;6.43;;;5.70;;
40533;SDS011;26233;51.894;10.192;2023-03-01T08:36:16;6.28;;;5.68;;
40533;SDS011;26233;51.894;10.192;2023-03-01T08:38:45;6.43;;;5.82;;
40533;SDS011;26233;51.894;10.192;2023-03-01T08:41:13;6.53;;;5.93;;
40533;SDS011;26233;51.894;10.192;2023-03-01T08:43:40;5.72;;;5.22;;
40533;SDS011;26233;51.894;10.192;2023-03-01T08:46:07;6.20;;;5.70;;
40533;SDS011;26233;51.894;10.192;2023-03-01T08:48:34;6.03;;;5.53;;
40533;SDS011;26233;51.894;10.192;2023-03-01T08:51:08;6.47;;;5.90;;
40533;SDS011;26233;51.894;10.192;2023-03-01T08:53:37;5.65;;;5.10;;
40533;SDS011;26233;51.894;10.192;2023-03-01T08:56:05;5.97;;;5.38;;
40533;SDS011;26233;51.894;10.192;2023-03-01T08:58:32;6.40;;;5.82;;
40533;SDS011;26233;51.894;10.192;2023-03-01T09:01:00;6.88;;;6.18;;
40533;SDS011;26233;51.894;10.192;2023-03-01T09:03:28;5.80;;;5.30;;
40533;SDS011;26233;51.894;10.192;2023-03-01T09:05:59;6.40;;;5.80;;
40533;SDS011;26233;51.894;10.192;2023-03-01T09:08:27;6.03;;;5.53;;
40533;SDS011;26233;51.894;10.192;2023-03-01T09:10:56;6.75;;;6.00;;
40533;SDS011;26233;51.894;10.192;2023-03-01T09:13:23;5.82;;;5.28;;
40533;SDS011;26233;51.894;10.192;2023-03-01T09:15:50;6.63;;;6.03;;
40533;SDS011;26233;51.894;10.192;2023-03-01T09:18:17;6.15;;;5.65;;
40533;SDS011;26233;51.894;10.192;2023-03-01T09:20:44;6.00;;;5.40;;
40533;SDS011;26233;51.894;10.192;2023-03-01T09:23:11;6.65;;;6.05;;
40533;SDS011;26233;51.894;10.192;2023-03-01T09:25:38;6.28;;;5.68;;
40533;SDS011;26233;51.894;10.192;2023-03-01T09:28:07;6.68;;;6.07;;
40533;SDS011;26233;51.894;10.192;2023-03-01T09:30:36;6.30;;;5.70;;
40533;SDS011;26233;51.894;10.192;2023-03-01T09:33:03;5.65;;;5.20;;
40533;SDS011;26233;51.894;10.192;2023-03-01T09:35:30;5.32;;;4.82;;
40533;SDS011;26233;51.894;10.192;2023-03-01T09:37:57;5.47;;;4.97;;
40533;SDS011;26233;51.894;10.192;2023-03-01T09:40:24;6.10;;;5.50;;
40533;SDS011;26233;51.894;10.192;2023-03-01T09:42:54;5.40;;;4.90;;
40533;SDS011;26233;51.894;10.192;2023-03-01T09:45:34;5.38;;;4.95;;
40533;SDS011;26233;51.894;10.192;2023-03-01T09:48:06;4.65;;;4.25;;
40533;SDS011;26233;51.894;10.192;2023-03-01T09:50:43;5.03;;;4.63;;
40533;SDS011;26233;51.894;10.192;2023-03-01T09:53:13;5.03;;;4.45;;
40533;SDS011;26233;51.894;10.192;2023-03-01T09:55:43;5.13;;;4.72;;
40533;SDS011;26233;51.894;10.192;2023-03-01T10:01:03;6.25;;;4.70;;
40533;SDS011;26233;51.894;10.192;2023-03-01T10:03:52;4.88;;;4.43;;
40533;SDS011;26233;51.894;10.192;2023-03-01T10:06:31;5.30;;;4.80;;
40533;SDS011;26233;51.894;10.192;2023-03-01T10:08:59;5.90;;;4.93;;
40533;SDS011;26233;51.894;10.192;2023-03-01T10:11:32;5.35;;;4.85;;
40533;SDS011;26233;51.894;10.192;2023-03-01T10:14:03;4.88;;;4.47;;
40533;SDS011;26233;51.894;10.192;2023-03-01T10:16:40;5.80;;;5.00;;
40533;SDS011;26233;51.894;10.192;2023-03-01T10:19:20;5.30;;;4.80;;
40533;SDS011;26233;51.894;10.192;2023-03-01T10:21:54;5.18;;;4.72;;
40533;SDS011;26233;51.894;10.192;2023-03-01T10:24:30;5.45;;;4.95;;
40533;SDS011;26233;51.894;10.192;2023-03-01T10:27:03;5.03;;;4.60;;
40533;SDS011;26233;51.894;10.192;2023-03-01T10:29:34;5.50;;;5.00;;
40533;SDS011;26233;51.894;10.192;2023-03-01T10:32:10;4.88;;;4.47;;
40533;SDS011;26233;51.894;10.192;2023-03-01T10:34:37;5.05;;;4.55;;
40533;SDS011;26233;51.894;10.192;2023-03-01T10:37:09;5.43;;;4.93;;
40533;SDS011;26233;51.894;10.192;2023-03-01T10:39:54;4.95;;;4.55;;
40533;SDS011;26233;51.894;10.192;2023-03-01T10:42:25;5.05;;;4.57;;
40533;SDS011;26233;51.894;10.192;2023-03-01T10:44:55;5.32;;;4.72;;
40533;SDS011;26233;51.894;10.192;2023-03-01T10:47:25;4.88;;;4.47;;
40533;SDS011;26233;51.894;10.192;2023-03-01T10:49:58;5.40;;;4.75;;
40533;SDS011;26233;51.894;10.192;2023-03-01T10:52:28;7.47;;;4.80;;
40533;SDS011;26233;51.894;10.192;2023-03-01T10:55:00;5.00;;;4.50;;
40533;SDS011;26233;51.894;10.192;2023-03-01T10:57:32;5.15;;;4.65;;
40533;SDS011;26233;51.894;10.192;2023-03-01T11:00:20;5.07;;;4.65;;
40533;SDS011;26233;51.894;10.192;2023-03-01T11:03:02;6.63;;;4.93;;
40533;SDS011;26233;51.894;10.192;2023-03-01T11:05:50;5.18;;;4.68;;
40533;SDS011;26233;51.894;10.192;2023-03-01T11:08:31;4.82;;;4.32;;
40533;SDS011;26233;51.894;10.192;2023-03-01T11:11:03;5.45;;;4.95;;
40533;SDS011;26233;51.894;10.192;2023-03-01T11:13:57;5.57;;;4.88;;
40533;SDS011;26233;51.894;10.192;2023-03-01T11:16:31;6.35;;;5.47;;
40533;SDS011;26233;51.894;10.192;2023-03-01T11:19:12;4.72;;;4.32;;
40533;SDS011;26233;51.894;10.192;2023-03-01T11:21:49;5.00;;;4.50;;
40533;SDS011;26233;51.894;10.192;2023-03-01T11:24:24;4.88;;;4.43;;
40533;SDS011;26233;51.894;10.192;2023-03-01T11:27:08;4.45;;;4.05;;
40533;SDS011;26233;51.894;10.192;2023-03-01T11:29:45;5.18;;;4.68;;
40533;SDS011;26233;51.894;10.192;2023-03-01T11:32:17;5.28;;;4.78;;
40533;SDS011;26233;51.894;10.192;2023-03-01T11:34:49;5.57;;;5.07;;
40533;SDS011;26233;51.894;10.192;2023-03-01T11:37:26;4.97;;;4.47;;
40533;SDS011;26233;51.894;10.192;2023-03-01T11:40:03;5.22;;;4.72;;
40533;SDS011;26233;51.894;10.192;2023-03-01T11:42:48;5.10;;;4.70;;
40533;SDS011;26233;51.894;10.192;2023-03-01T11:45:26;5.47;;;4.97;;
40533;SDS011;26233;51.894;10.192;2023-03-01T11:48:24;5.25;;;4.35;;
40533;SDS011;26233;51.894;10.192;2023-03-01T11:51:12;6.05;;;5.00;;
40533;SDS011;26233;51.894;10.192;2023-03-01T11:53:51;5.82;;;4.95;;
40533;SDS011;26233;51.894;10.192;2023-03-01T11:56:40;5.68;;;4.85;;
40533;SDS011;26233;51.894;10.192;2023-03-01T11:59:28;4.60;;;4.20;;
40533;SDS011;26233;51.894;10.192;2023-03-01T12:02:33;5.75;;;4.93;;
40533;SDS011;26233;51.894;10.192;2023-03-01T12:05:44;4.55;;;4.15;;
40533;SDS011;26233;51.894;10.192;2023-03-01T12:08:41;5.05;;;4.60;;
40533;SDS011;26233;51.894;10.192;2023-03-01T12:11:20;5.60;;;5.07;;
40533;SDS011;26233;51.894;10.192;2023-03-01T12:14:04;6.00;;;4.38;;
40533;SDS011;26233;51.894;10.192;2023-03-01T12:16:53;4.35;;;3.95;;
40533;SDS011;26233;51.894;10.192;2023-03-01T12:19:42;4.45;;;4.00;;
40533;SDS011;26233;51.894;10.192;2023-03-01T12:22:42;4.47;;;4.07;;
40533;SDS011;26233;51.894;10.192;2023-03-01T12:25:38;5.82;;;4.47;;
40533;SDS011;26233;51.894;10.192;2023-03-01T12:28:19;4.95;;;4.45;;
40533;SDS011;26233;51.894;10.192;2023-03-01T12:34:31;5.30;;;4.70;;
40533;SDS011;26233;51.894;10.192;2023-03-01T12:37:25;4.28;;;3.90;;
40533;SDS011;26233;51.894;10.192;2023-03-01T12:40:13;5.22;;;4.72;;
40533;SDS011;26233;51.894;10.192;2023-03-01T12:43:10;6.38;;;4.60;;
40533;SDS011;26233;51.894;10.192;2023-03-01T12:46:02;4.60;;;4.20;;
40533;SDS011;26233;51.894;10.192;2023-03-01T12:48:55;4.45;;;4.05;;
40533;SDS011;26233;51.894;10.192;2023-03-01T12:51:34;4.40;;;4.00;;
40533;SDS011;26233;51.894;10.192;2023-03-01T12:54:05;4.90;;;4.07;;
40533;SDS011;26233;51.894;10.192;2023-03-01T12:56:43;4.90;;;4.40;;
40533;SDS011;26233;51.894;10.192;2023-03-01T12:59:18;4.30;;;3.90;;
40533;SDS011;26233;51.894;10.192;2023-03-01T13:01:52;4.30;;;3.83;;
40533;SDS011;26233;51.894;10.192;2023-03-01T13:04:31;4.32;;;4.03;;
40533;SDS011;26233;51.894;10.192;2023-03-01T13:07:28;3.92;;;3.60;;
40533;SDS011;26233;51.894;10.192;2023-03-01T13:10:10;5.03;;;4.53;;
40533;SDS011;26233;51.894;10.192;2023-03-01T13:12:52;4.70;;;4.20;;
40533;SDS011;26233;51.894;10.192;2023-03-01T13:15:35;4.68;;;4.18;;
40533;SDS011;26233;51.894;10.192;2023-03-01T13:18:04;4.38;;;3.97;;
40533;SDS011;26233;51.894;10.192;2023-03-01T13:20:59;5.07;;;4.57;;
40533;SDS011;26233;51.894;10.192;2023-03-01T13:23:29;4.63;;;4.20;;
40533;SDS011;26233;51.894;10.192;2023-03-01T13:26:12;4.22;;;3.83;;
40533;SDS011;26233;51.894;10.192;2023-03-01T13:34:45;4.28;;;3.83;;
40533;SDS011;26233;51.894;10.192;2023-03-01T13:37:25;4.30;;;3.63;;
40533;SDS011;26233;51.894;10.192;2023-03-01T13:39:59;4.10;;;3.70;;
40533;SDS011;26233;51.894;10.192;2023-03-01T13:42:38;3.90;;;3.50;;
40533;SDS011;26233;51.894;10.192;2023-03-01T13:45:16;4.40;;;4.00;;
40533;SDS011;26233;51.894;10.192;2023-03-01T13:47:53;4.28;;;3.88;;
40533;SDS011;26233;51.894;10.192;2023-03-01T13:50:24;4.22;;;3.60;;
40533;SDS011;26233;51.894;10.192;2023-03-01T13:52:55;3.90;;;3.60;;
40533;SDS011;26233;51.894;10.192;2023-03-01T13:55:27;4.57;;;4.15;;
40533;SDS011;26233;51.894;10.192;2023-03-01T13:58:04;4.80;;;4.30;;
40533;SDS011;26233;51.894;10.192;2023-03-01T14:00:44;4.72;;;4.25;;
40533;SDS011;26233;51.894;10.192;2023-03-01T14:03:12;4.45;;;3.85;;
40533;SDS011;26233;51.894;10.192;2023-03-01T14:05:43;4.40;;;3.95;;
40533;SDS011;26233;51.894;10.192;2023-03-01T14:08:26;4.82;;;4.32;;
40533;SDS011;26233;51.894;10.192;2023-03-01T14:11:04;4.22;;;3.83;;
40533;SDS011;26233;51.894;10.192;2023-03-01T14:14:10;5.10;;;3.42;;
40533;SDS011;26233;51.894;10.192;2023-03-01T14:17:05;4.55;;;3.70;;
40533;SDS011;26233;51.894;10.192;2023-03-01T14:19:48;4.05;;;3.60;;
40533;SDS011;26233;51.894;10.192;2023-03-01T14:22:23;4.47;;;3.70;;
40533;SDS011;26233;51.894;10.192;2023-03-01T14:24:55;4.25;;;3.88;;
40533;SDS011;26233;51.894;10.192;2023-03-01T14:27:25;4.45;;;4.05;;
40533;SDS011;26233;51.894;10.192;2023-03-01T14:29:57;4.22;;;3.83;;
40533;SDS011;26233;51.894;10.192;2023-03-01T14:32:28;3.83;;;3.53;;
40533;SDS011;26233;51.894;10.192;2023-03-01T14:34:58;4.40;;;4.00;;
40533;SDS011;26233;51.894;10.192;2023-03-01T14:37:27;4.10;;;3.75;;
40533;SDS011;26233;51.894;10.192;2023-03-01T14:39:58;4.07;;;3.70;;
40533;SDS011;26233;51.894;10.192;2023-03-01T14:42:28;4.00;;;3.53;;
40533;SDS011;26233;51.894;10.192;2023-03-01T14:45:00;4.20;;;3.80;;
40533;SDS011;26233;51.894;10.192;2023-03-01T14:47:32;4.10;;;3.70;;
40533;SDS011;26233;51.894;10.192;2023-03-01T14:50:04;3.75;;;3.45;;
40533;SDS011;26233;51.894;10.192;2023-03-01T14:52:37;4.38;;;3.97;;
40533;SDS011;26233;51.894;10.192;2023-03-01T14:55:07;3.88;;;3.50;;
40533;SDS011;26233;51.894;10.192;2023-03-01T14:57:43;3.88;;;3.47;;
40533;SDS011;26233;51.894;10.192;2023-03-01T15:00:16;4.50;;;3.55;;
40533;SDS011;26233;51.894;10.192;2023-03-01T15:02:48;3.85;;;3.55;;
40533;SDS011;26233;51.894;10.192;2023-03-01T15:05:18;3.75;;;3.38;;
40533;SDS011;26233;51.894;10.192;2023-03-01T15:07:52;3.97;;;3.67;;
40533;SDS011;26233;51.894;10.192;2023-03-01T15:10:21;4.15;;;3.75;;
40533;SDS011;26233;51.894;10.192;2023-03-01T15:12:51;4.30;;;3.78;;
40533;SDS011;26233;51.894;10.192;2023-03-01T15:15:19;5.60;;;3.83;;
40533;SDS011;26233;51.894;10.192;2023-03-01T15:17:58;4.68;;;4.28;;